Time;durP1;ratioP1;P1;durP2;ratioP2;P2;SDS_P1;SDS_P2;PMS_P1;PMS_P2;Temp;Humidity;BMP_temperature;BMP_pressure;BME280_temperature;BME280_humidity;BME280_pressure;Samples;Min_cycle;Max_cycle;Signal;HPM_P1;HPM_P2
2022/02/21 00:00:44;;;;;;;42.90;38.30;;;;;21.40;98445.00;;;;2076638;28;20221;-74
2022/02/21 00:01:45;;;;;;;40.80;36.37;;;;;21.40;98447.00;;;;2075813;28;20214;-75
2022/02/21 00:02:46;;;;;;;41.77;36.30;;;;;21.40;98433.00;;;;2076166;28;20229;-75
2022/02/21 00:03:46;;;;;;;39.30;34.88;;;;;21.40;98446.00;;;;2075270;28;20715;-75
2022/02/21 00:04:47;;;;;;;42.73;34.27;;;;;21.40;98435.00;;;;2075331;28;20235;-75
2022/02/21 00:05:50;;;;;;;40.10;35.67;;;;;21.40;98447.00;;;;2076806;28;20202;-74
2022/02/21 00:06:51;;;;;;;38.65;34.15;;;;;21.40;98450.00;;;;2076735;28;20205;-75
2022/02/21 00:07:51;;;;;;;39.20;33.97;;;;;21.40;98452.00;;;;2076772;28;20217;-75
2022/02/21 00:08:51;;;;;;;40.00;35.60;;;;;21.40;98463.00;;;;2076485;28;20217;-75
2022/02/21 00:09:52;;;;;;;38.60;34.50;;;;;21.40;98470.00;;;;2075885;28;20222;-75
2022/02/21 00:10:52;;;;;;;38.23;34.00;;;;;21.40;98456.00;;;;2077498;28;20236;-75
2022/02/21 00:11:52;;;;;;;35.60;31.77;;;;;21.40;98457.00;;;;2076773;28;20209;-75
2022/02/21 00:12:52;;;;;;;35.53;31.70;;;;;21.30;98465.00;;;;2075943;28;20217;-75
2022/02/21 00:13:53;;;;;;;37.17;33.10;;;;;21.40;98450.00;;;;2076667;28;20218;-75
2022/02/21 00:14:53;;;;;;;36.57;32.47;;;;;21.40;98455.00;;;;2076788;28;20318;-74
2022/02/21 00:15:53;;;;;;;35.73;31.80;;;;;21.40;98458.00;;;;2076716;28;20230;-75
2022/02/21 00:16:54;;;;;;;37.50;32.47;;;;;21.10;98461.00;;;;2076840;28;20886;-75
2022/02/21 00:17:56;;;;;;;33.20;29.70;;;;;21.30;98463.00;;;;2076285;28;20575;-75
2022/02/21 00:18:56;;;;;;;32.60;28.70;;;;;21.30;98461.00;;;;2075902;28;20205;-75
2022/02/21 00:19:57;;;;;;;33.17;29.40;;;;;21.30;98484.00;;;;2076013;28;20210;-75
2022/02/21 00:20:57;;;;;;;32.23;28.87;;;;;21.30;98479.00;;;;2075210;28;20293;-75
2022/02/21 00:21:57;;;;;;;31.73;27.80;;;;;21.30;98482.00;;;;2075656;28;20206;-74
2022/02/21 00:22:58;;;;;;;31.97;28.57;;;;;21.30;98487.00;;;;2075989;28;20225;-75
2022/02/21 00:23:58;;;;;;;29.30;26.20;;;;;21.30;98486.00;;;;2075823;28;20221;-75
2022/02/21 00:24:58;;;;;;;30.40;27.10;;;;;21.30;98480.00;;;;2075933;28;20214;-75
2022/02/21 00:25:59;;;;;;;30.03;26.80;;;;;21.30;98491.00;;;;2076058;28;20276;-75
2022/02/21 00:26:59;;;;;;;28.43;25.33;;;;;21.30;98471.00;;;;2076724;28;20245;-75
2022/02/21 00:27:59;;;;;;;33.23;27.37;;;;;21.30;98494.00;;;;2076699;28;20751;-75
2022/02/21 00:29:00;;;;;;;31.00;25.90;;;;;21.30;98501.00;;;;2076681;28;20791;-74
2022/02/21 00:30:00;;;;;;;29.43;26.27;;;;;21.30;98492.00;;;;2076539;28;20241;-74
2022/02/21 00:31:01;;;;;;;28.93;25.93;;;;;21.30;98495.00;;;;2072151;28;20698;-74
2022/02/21 00:32:01;;;;;;;28.63;25.50;;;;;21.30;98503.00;;;;2075636;28;20267;-74
2022/02/21 00:33:01;;;;;;;28.33;25.30;;;;;21.30;98507.00;;;;2075770;28;20221;-74
2022/02/21 00:34:02;;;;;;;26.93;23.33;;;;;21.30;98506.00;;;;2076048;28;20217;-75
2022/02/21 00:35:03;;;;;;;27.43;24.10;;;;;21.30;98512.00;;;;2076489;28;20218;-74
2022/02/21 00:36:03;;;;;;;28.37;23.40;;;;;21.30;98500.00;;;;2076709;28;20875;-74
2022/02/21 00:37:04;;;;;;;27.33;24.40;;;;;21.30;98504.00;;;;2076485;28;20895;-75
2022/02/21 00:38:04;;;;;;;24.67;21.83;;;;;21.30;98506.00;;;;2076359;28;20217;-74
2022/02/21 00:39:05;;;;;;;26.00;22.43;;;;;21.30;98513.00;;;;2075407;28;20313;-74
2022/02/21 00:40:05;;;;;;;25.20;22.50;;;;;21.30;98499.00;;;;2075197;28;20300;-74
2022/02/21 00:41:05;;;;;;;27.47;24.30;;;;;21.30;98516.00;;;;2074957;28;20685;-74
2022/02/21 00:42:06;;;;;;;26.73;23.47;;;;;21.30;98502.00;;;;2075134;28;20229;-75
2022/02/21 00:43:06;;;;;;;26.43;22.97;;;;;21.30;98517.00;;;;2075406;28;20222;-75
2022/02/21 00:44:07;;;;;;;22.93;20.50;;;;;21.30;98512.00;;;;2076634;28;20218;-74
2022/02/21 00:45:09;;;;;;;25.33;22.70;;;;;21.30;98520.00;;;;2076745;28;20246;-75
2022/02/21 00:46:10;;;;;;;24.77;22.17;;;;;21.30;98538.00;;;;2076700;28;20249;-74
2022/02/21 00:47:10;;;;;;;23.17;20.80;;;;;21.30;98525.00;;;;2076005;28;20206;-75
2022/02/21 00:48:10;;;;;;;23.83;21.07;;;;;21.20;98530.00;;;;2075598;28;20198;-74
2022/02/21 00:49:10;;;;;;;25.50;20.00;;;;;21.30;98539.00;;;;2075591;28;20297;-74
2022/02/21 00:50:11;;;;;;;23.70;20.20;;;;;21.30;98523.00;;;;2075719;28;20206;-75
2022/02/21 00:51:11;;;;;;;22.80;19.97;;;;;21.20;98518.00;;;;2075680;28;20237;-75
2022/02/21 00:52:11;;;;;;;22.17;19.87;;;;;21.20;98540.00;;;;2076230;28;20210;-75
2022/02/21 00:53:12;;;;;;;20.90;18.60;;;;;21.20;98536.00;;;;2076378;28;20276;-74
2022/02/21 00:54:12;;;;;;;21.03;18.67;;;;;21.20;98534.00;;;;2076521;28;20217;-74
2022/02/21 00:55:12;;;;;;;22.43;20.10;;;;;21.20;98520.00;;;;2075850;28;20213;-75
2022/02/21 00:56:13;;;;;;;20.63;18.43;;;;;21.20;98538.00;;;;2075113;28;20276;-75
2022/02/21 00:57:13;;;;;;;22.37;19.63;;;;;21.20;98547.00;;;;2075155;28;20304;-74
2022/02/21 00:58:14;;;;;;;21.70;18.87;;;;;21.20;98529.00;;;;2067958;28;20221;-73
2022/02/21 00:59:14;;;;;;;20.63;18.50;;;;;21.20;98549.00;;;;2075014;28;20246;-74
2022/02/21 01:00:15;;;;;;;18.87;16.97;;;;;21.20;98560.00;;;;2075281;28;20236;-74
2022/02/21 01:01:15;;;;;;;20.07;17.63;;;;;21.20;98555.00;;;;2075388;28;20302;-74
2022/02/21 01:02:16;;;;;;;21.40;18.50;;;;;21.20;98552.00;;;;2075730;28;20949;-74
2022/02/21 01:03:16;;;;;;;18.87;16.97;;;;;21.20;98546.00;;;;2076005;28;20700;-75
2022/02/21 01:04:16;;;;;;;18.57;16.67;;;;;21.20;98571.00;;;;2075438;28;20224;-75
2022/02/21 01:05:17;;;;;;;20.00;17.20;;;;;21.20;98560.00;;;;2074785;28;20237;-75
2022/02/21 01:06:17;;;;;;;19.90;16.60;;;;;21.20;98564.00;;;;2075316;28;20214;-74
2022/02/21 01:07:17;;;;;;;18.40;16.47;;;;;21.20;98561.00;;;;2074853;28;20277;-74
2022/02/21 01:08:18;;;;;;;17.83;15.73;;;;;21.20;98560.00;;;;2075020;28;20233;-74
2022/02/21 01:09:18;;;;;;;18.23;16.33;;;;;21.20;98557.00;;;;2075347;28;20210;-75
2022/02/21 01:10:18;;;;;;;18.70;16.80;;;;;21.20;98559.00;;;;2075411;28;20206;-74
2022/02/21 01:11:20;;;;;;;19.10;16.43;;;;;21.20;98570.00;;;;2075511;28;20329;-74
2022/02/21 01:12:21;;;;;;;16.88;15.07;;;;;21.20;98567.00;;;;2075669;28;20669;-74
2022/02/21 01:13:21;;;;;;;18.40;14.90;;;;;21.20;98548.00;;;;2074480;28;20772;-71
2022/02/21 01:14:22;;;;;;;19.07;15.80;;;;;21.20;98557.00;;;;2075280;28;20307;-72
2022/02/21 01:15:22;;;;;;;17.90;16.00;;;;;21.20;98553.00;;;;2074345;28;20518;-71
2022/02/21 01:16:24;;;;;;;16.90;15.10;;;;;21.20;98559.00;;;;2076140;28;20233;-73
2022/02/21 01:17:27;;;;;;;17.55;15.52;;;;;21.20;98562.00;;;;2072274;28;20216;-74
2022/02/21 01:18:27;;;;;;;17.58;15.13;;;;;21.20;98560.00;;;;2075375;28;20307;-74
2022/02/21 01:19:27;;;;;;;16.67;14.97;;;;;21.20;98553.00;;;;2075415;28;20268;-74
2022/02/21 01:20:28;;;;;;;18.60;15.67;;;;;21.20;98540.00;;;;2075293;28;20208;-74
2022/02/21 01:21:28;;;;;;;14.93;13.30;;;;;21.10;98551.00;;;;2076311;28;20293;-74
2022/02/21 01:22:29;;;;;;;15.33;13.13;;;;;21.10;98550.00;;;;2076154;28;20693;-75
2022/02/21 01:23:30;;;;;;;15.80;14.02;;;;;21.10;98549.00;;;;2076266;28;20221;-74
2022/02/21 01:24:30;;;;;;;15.60;13.77;;;;;21.10;98557.00;;;;2075899;28;20209;-74
2022/02/21 01:25:31;;;;;;;15.33;12.77;;;;;21.20;98558.00;;;;2075254;28;20218;-74
2022/02/21 01:26:31;;;;;;;16.63;14.20;;;;;21.20;98568.00;;;;2075283;28;20217;-74
2022/02/21 01:27:31;;;;;;;15.03;13.43;;;;;21.10;98576.00;;;;2075446;28;20225;-74
2022/02/21 01:28:32;;;;;;;13.30;11.90;;;;;21.20;98580.00;;;;2075393;28;20238;-74
2022/02/21 01:29:32;;;;;;;16.63;14.10;;;;;21.20;98591.00;;;;2075512;28;20252;-74
2022/02/21 01:30:32;;;;;;;14.83;12.33;;;;;21.20;98590.00;;;;2075924;28;20233;-74
2022/02/21 01:31:33;;;;;;;14.83;13.03;;;;;21.10;98587.00;;;;2075826;28;20214;-74
2022/02/21 01:32:33;;;;;;;15.17;13.60;;;;;21.10;98599.00;;;;2076358;28;20213;-74
2022/02/21 01:33:34;;;;;;;12.80;11.00;;;;;21.10;98588.00;;;;2075755;28;20241;-74
2022/02/21 01:34:34;;;;;;;15.77;13.57;;;;;21.10;98594.00;;;;2075413;28;20224;-75
2022/02/21 01:35:34;;;;;;;13.60;12.20;;;;;21.10;98602.00;;;;2075218;28;20217;-74
2022/02/21 01:36:35;;;;;;;13.20;11.50;;;;;21.10;98597.00;;;;2075252;28;20216;-74
2022/02/21 01:37:35;;;;;;;12.30;11.00;;;;;21.10;98593.00;;;;2075611;28;20218;-74
2022/02/21 01:38:35;;;;;;;12.40;11.10;;;;;21.10;98594.00;;;;2075333;28;20356;-75
2022/02/21 01:39:36;;;;;;;13.87;12.37;;;;;21.10;98595.00;;;;2076236;28;20210;-74
2022/02/21 01:40:37;;;;;;;13.87;12.40;;;;;21.10;98582.00;;;;2075737;28;20225;-74
2022/02/21 01:41:37;;;;;;;11.85;10.20;;;;;21.10;98605.00;;;;2076045;28;20304;-74
2022/02/21 01:42:37;;;;;;;13.10;11.10;;;;;21.10;98601.00;;;;2074615;28;20210;-74
2022/02/21 01:43:38;;;;;;;12.87;10.77;;;;;21.10;98591.00;;;;2074995;28;20206;-74
2022/02/21 01:44:42;;;;;;;12.67;11.37;;;;;21.10;98604.00;;;;2074857;28;20229;-75
2022/02/21 01:45:43;;;;;;;12.85;10.88;;;;;21.10;98597.00;;;;2075380;28;20580;-74
2022/02/21 01:46:43;;;;;;;12.60;11.30;;;;;21.10;98599.00;;;;2075879;28;20225;-75
2022/02/21 01:47:44;;;;;;;13.73;10.37;;;;;21.10;98599.00;;;;2075041;28;20214;-74
2022/02/21 01:48:44;;;;;;;11.73;10.53;;;;;21.10;98620.00;;;;2074832;28;20245;-74
2022/02/21 01:49:44;;;;;;;10.67;9.57;;;;;21.10;98612.00;;;;2066312;28;20715;-75
2022/02/21 01:50:45;;;;;;;12.20;10.90;;;;;21.10;98611.00;;;;2073583;28;20590;-74
2022/02/21 01:51:45;;;;;;;11.40;9.57;;;;;21.10;98611.00;;;;2074480;28;20685;-74
2022/02/21 01:52:46;;;;;;;11.50;9.90;;;;;21.10;98615.00;;;;2069106;28;20217;-75
2022/02/21 01:53:47;;;;;;;15.50;10.57;;;;;21.10;98611.00;;;;2075551;28;20210;-75
2022/02/21 01:54:47;;;;;;;12.40;10.13;;;;;21.10;98608.00;;;;2075407;28;20214;-74
2022/02/21 01:55:48;;;;;;;10.20;8.97;;;;;21.10;98614.00;;;;2067180;28;20222;-74
2022/02/21 01:56:48;;;;;;;10.20;9.13;;;;;21.10;98618.00;;;;2072435;28;20218;-74
2022/02/21 01:57:50;;;;;;;10.60;9.27;;;;;21.10;98612.00;;;;2075294;28;20218;-75
2022/02/21 01:58:50;;;;;;;10.70;9.52;;;;;21.10;98615.00;;;;2075849;28;20214;-74
2022/02/21 01:59:51;;;;;;;11.27;9.20;;;;;21.10;98617.00;;;;2075218;28;20228;-74
2022/02/21 02:00:51;;;;;;;10.50;9.40;;;;;21.10;98620.00;;;;2074923;28;20213;-75
2022/02/21 02:01:52;;;;;;;9.10;8.20;;;;;21.10;98606.00;;;;2075845;28;20214;-75
2022/02/21 02:02:52;;;;;;;9.50;8.03;;;;;21.10;98626.00;;;;2074461;28;20220;-74
2022/02/21 02:03:53;;;;;;;9.03;8.10;;;;;21.00;98622.00;;;;2074448;28;20521;-75
2022/02/21 02:04:53;;;;;;;9.70;8.70;;;;;21.10;98612.00;;;;2075115;28;20217;-74
2022/02/21 02:05:53;;;;;;;9.83;8.83;;;;;21.10;98635.00;;;;2075125;28;20230;-74
2022/02/21 02:06:54;;;;;;;9.80;8.80;;;;;21.00;98631.00;;;;2075855;28;20285;-74
2022/02/21 02:07:54;;;;;;;10.90;9.13;;;;;21.00;98637.00;;;;2076054;28;20573;-75
2022/02/21 02:08:54;;;;;;;10.27;9.17;;;;;21.00;98647.00;;;;2075911;28;20222;-74
2022/02/21 02:09:54;;;;;;;9.70;7.73;;;;;21.00;98634.00;;;;2076082;28;20221;-72
2022/02/21 02:12:52;;;;;;;8.98;8.07;;;;;21.00;98638.00;;;;2069441;28;20214;-73
2022/02/21 02:13:52;;;;;;;8.50;7.57;;;;;21.00;98637.00;;;;2075892;28;20692;-74
2022/02/21 02:14:52;;;;;;;9.90;8.10;;;;;21.00;98641.00;;;;2074236;28;20720;-74
2022/02/21 02:15:54;;;;;;;7.97;7.17;;;;;21.00;98636.00;;;;2074823;28;20214;-74
2022/02/21 02:16:54;;;;;;;8.70;7.60;;;;;21.00;98637.00;;;;2074343;28;20220;-74
2022/02/21 02:17:54;;;;;;;8.73;7.83;;;;;21.00;98633.00;;;;2075129;28;20248;-74
2022/02/21 02:18:55;;;;;;;9.63;7.57;;;;;21.00;98647.00;;;;2074982;28;20587;-75
2022/02/21 02:19:55;;;;;;;8.27;7.20;;;;;21.00;98643.00;;;;2075478;28;20271;-74
2022/02/21 02:20:55;;;;;;;9.03;7.73;;;;;21.00;98633.00;;;;2075612;28;20222;-74
2022/02/21 02:21:56;;;;;;;9.47;7.30;;;;;21.00;98623.00;;;;2075930;28;20218;-75
2022/02/21 02:22:56;;;;;;;8.83;7.67;;;;;21.00;98631.00;;;;2075910;28;20237;-75
2022/02/21 02:23:57;;;;;;;8.97;7.23;;;;;21.00;98638.00;;;;2075362;28;20217;-74
2022/02/21 02:24:57;;;;;;;7.40;6.33;;;;;21.00;98636.00;;;;2075136;28;20213;-74
2022/02/21 02:25:57;;;;;;;8.77;6.80;;;;;21.00;98628.00;;;;2075019;28;20664;-74
2022/02/21 02:26:58;;;;;;;7.70;6.57;;;;;21.00;98634.00;;;;2075237;28;20581;-74
2022/02/21 02:27:58;;;;;;;8.27;6.50;;;;;21.00;98634.00;;;;2074817;28;20226;-74
2022/02/21 02:28:58;;;;;;;8.30;7.03;;;;;21.00;98640.00;;;;2075538;28;20249;-74
2022/02/21 02:29:59;;;;;;;7.03;6.33;;;;;21.00;98624.00;;;;2075251;28;20333;-74
2022/02/21 02:31:00;;;;;;;7.53;6.83;;;;;21.00;98638.00;;;;2074892;28;20284;-74
2022/02/21 02:32:00;;;;;;;7.73;6.50;;;;;21.00;98619.00;;;;2075234;28;20983;-74
2022/02/21 02:33:01;;;;;;;7.13;6.37;;;;;21.00;98634.00;;;;2074472;28;20217;-75
2022/02/21 02:34:01;;;;;;;7.77;6.03;;;;;21.00;98627.00;;;;2075095;28;20264;-75
2022/02/21 02:35:01;;;;;;;8.30;6.90;;;;;21.00;98620.00;;;;2075061;28;20214;-74
2022/02/21 02:36:02;;;;;;;7.60;6.80;;;;;21.00;98630.00;;;;2077763;28;20267;-75
2022/02/21 02:37:02;;;;;;;8.17;6.30;;;;;21.00;98632.00;;;;2075222;28;20221;-74
2022/02/21 02:38:03;;;;;;;8.33;6.23;;;;;21.00;98632.00;;;;2075026;28;20221;-74
2022/02/21 02:39:03;;;;;;;6.40;5.57;;;;;21.00;98639.00;;;;2074262;28;20225;-75
2022/02/21 02:40:04;;;;;;;7.50;6.17;;;;;21.00;98633.00;;;;2074413;28;20221;-74
2022/02/21 02:41:07;;;;;;;6.23;5.60;;;;;21.00;98650.00;;;;2074790;28;20280;-69
2022/02/21 02:42:08;;;;;;;7.10;5.65;;;;;21.00;98638.00;;;;2075861;28;20479;-74
2022/02/21 02:43:12;;;;;;;6.23;5.40;;;;;21.00;98650.00;;;;2074884;28;20737;-74
2022/02/21 02:44:12;;;;;;;6.72;6.00;;;;;21.00;98635.00;;;;2074882;28;20217;-74
2022/02/21 02:45:13;;;;;;;7.77;5.67;;;;;21.00;98643.00;;;;2075119;28;20206;-74
2022/02/21 02:46:13;;;;;;;6.97;5.47;;;;;21.00;98656.00;;;;2075010;28;20209;-74
2022/02/21 02:47:13;;;;;;;7.37;5.53;;;;;21.00;98664.00;;;;2075050;28;20218;-75
2022/02/21 02:48:14;;;;;;;6.20;4.50;;;;;21.00;98657.00;;;;2074913;28;20206;-74
2022/02/21 02:49:14;;;;;;;6.10;5.37;;;;;21.00;98658.00;;;;2075758;28;20225;-74
2022/02/21 02:50:14;;;;;;;5.50;4.93;;;;;21.00;98666.00;;;;2075841;28;20720;-74
2022/02/21 02:51:15;;;;;;;5.30;4.80;;;;;21.00;98663.00;;;;2075726;28;20590;-74
2022/02/21 02:52:15;;;;;;;6.27;5.20;;;;;21.00;98667.00;;;;2075677;28;20217;-74
2022/02/21 02:53:15;;;;;;;6.80;4.90;;;;;21.00;98681.00;;;;2073889;28;20308;-74
2022/02/21 02:54:16;;;;;;;6.33;5.37;;;;;21.00;98689.00;;;;2074333;28;20228;-74
2022/02/21 02:55:16;;;;;;;5.33;4.83;;;;;21.00;98644.00;;;;2074241;28;20267;-74
2022/02/21 02:56:16;;;;;;;6.57;5.03;;;;;21.00;98685.00;;;;2074965;28;20249;-74
2022/02/21 02:57:17;;;;;;;6.90;5.00;;;;;20.90;98676.00;;;;2075634;28;20739;-74
2022/02/21 02:58:17;;;;;;;6.80;5.33;;;;;20.90;98687.00;;;;2074502;28;20217;-74
2022/02/21 02:59:17;;;;;;;6.00;4.70;;;;;20.90;98684.00;;;;2074979;28;20213;-74
2022/02/21 03:00:18;;;;;;;5.83;4.83;;;;;20.90;98677.00;;;;2075918;28;20237;-74
2022/02/21 03:01:18;;;;;;;5.33;4.73;;;;;20.90;98677.00;;;;2076855;28;20213;-74
2022/02/21 03:02:18;;;;;;;6.50;4.80;;;;;20.90;98692.00;;;;2077527;28;20209;-74
2022/02/21 03:03:19;;;;;;;7.57;5.20;;;;;20.90;98683.00;;;;2077457;28;20297;-74
2022/02/21 03:04:19;;;;;;;5.37;4.67;;;;;20.90;98680.00;;;;2077574;28;20222;-74
2022/02/21 03:05:20;;;;;;;5.17;4.67;;;;;20.90;98684.00;;;;2077599;28;20244;-74
2022/02/21 03:06:21;;;;;;;5.93;4.50;;;;;20.90;98690.00;;;;2073055;28;20650;-75
2022/02/21 03:07:21;;;;;;;6.50;4.70;;;;;20.90;98689.00;;;;2076780;28;20240;-74
2022/02/21 03:08:22;;;;;;;7.40;5.03;;;;;20.90;98694.00;;;;2076331;28;20712;-74
2022/02/21 03:09:22;;;;;;;6.67;4.70;;;;;20.90;98699.00;;;;2075859;28;20709;-74
2022/02/21 03:10:22;;;;;;;6.77;4.80;;;;;20.90;98691.00;;;;2076379;28;20891;-74
2022/02/21 03:11:23;;;;;;;7.43;4.80;;;;;20.90;98691.00;;;;2076442;28;20820;-74
2022/02/21 03:12:23;;;;;;;5.33;4.03;;;;;20.90;98700.00;;;;2076565;28;20720;-74
2022/02/21 03:13:23;;;;;;;5.03;3.90;;;;;20.90;98698.00;;;;2077299;28;20267;-74
2022/02/21 03:14:24;;;;;;;5.20;3.77;;;;;20.90;98692.00;;;;2077241;28;20214;-74
2022/02/21 03:15:24;;;;;;;6.23;4.30;;;;;20.90;98708.00;;;;2077147;28;20229;-74
2022/02/21 03:16:26;;;;;;;5.03;4.13;;;;;20.90;98694.00;;;;2077283;28;20562;-74
2022/02/21 03:17:26;;;;;;;4.95;4.10;;;;;20.90;98687.00;;;;2077188;28;20680;-74
2022/02/21 03:18:26;;;;;;;4.60;3.80;;;;;20.90;98690.00;;;;2075980;28;20219;-74
2022/02/21 03:19:27;;;;;;;4.60;3.73;;;;;20.90;98689.00;;;;2075652;28;20308;-74
2022/02/21 03:20:27;;;;;;;5.20;4.20;;;;;20.90;98691.00;;;;2075257;28;20213;-74
2022/02/21 03:21:28;;;;;;;5.27;4.40;;;;;20.90;98684.00;;;;2075906;28;20289;-74
2022/02/21 03:22:28;;;;;;;4.90;4.03;;;;;20.90;98694.00;;;;2076040;28;20206;-74
2022/02/21 03:23:29;;;;;;;6.30;4.47;;;;;20.90;98681.00;;;;2077323;28;20465;-74
2022/02/21 03:24:29;;;;;;;4.93;3.70;;;;;20.90;98685.00;;;;2076540;28;20764;-74
2022/02/21 03:25:29;;;;;;;5.37;4.00;;;;;20.90;98688.00;;;;2076568;28;21648;-74
2022/02/21 03:26:30;;;;;;;4.57;3.70;;;;;20.90;98692.00;;;;2077236;28;20661;-74
2022/02/21 03:27:30;;;;;;;6.10;3.97;;;;;20.90;98691.00;;;;2076258;28;20580;-74
2022/02/21 03:28:31;;;;;;;4.93;3.47;;;;;20.90;98719.00;;;;2075605;28;20233;-73
2022/02/21 03:29:32;;;;;;;5.38;3.47;;;;;20.90;98707.00;;;;2066729;28;20229;-74
2022/02/21 03:30:32;;;;;;;5.87;4.07;;;;;20.90;98694.00;;;;2082772;28;20213;-73
2022/02/21 03:31:32;;;;;;;4.17;3.47;;;;;20.90;98690.00;;;;2082024;28;20214;-74
2022/02/21 03:32:33;;;;;;;4.60;3.60;;;;;20.90;98666.00;;;;2077215;28;20218;-74
2022/02/21 03:33:33;;;;;;;4.37;3.20;;;;;20.90;98685.00;;;;2077170;28;20213;-73
2022/02/21 03:34:33;;;;;;;4.37;3.30;;;;;20.90;98714.00;;;;2077248;28;20233;-73
2022/02/21 03:35:34;;;;;;;5.40;4.10;;;;;20.80;98707.00;;;;2075641;28;20237;-74
2022/02/21 03:36:34;;;;;;;5.00;3.20;;;;;20.80;98718.00;;;;2076341;28;20220;-73
2022/02/21 03:37:37;;;;;;;4.77;3.00;;;;;20.80;98699.00;;;;2076340;28;20213;-73
2022/02/21 03:38:38;;;;;;;6.05;3.65;;;;;20.80;98701.00;;;;2076137;28;20210;-73
2022/02/21 03:39:38;;;;;;;4.60;3.40;;;;;20.80;98708.00;;;;2077029;28;20260;-73
2022/02/21 03:40:38;;;;;;;5.13;3.40;;;;;20.80;98705.00;;;;2076073;28;20220;-74
2022/02/21 03:41:39;;;;;;;6.87;3.30;;;;;20.80;98701.00;;;;2076408;28;20214;-74
2022/02/21 03:42:39;;;;;;;7.43;3.47;;;;;20.80;98706.00;;;;2077008;28;20341;-74
2022/02/21 03:43:39;;;;;;;4.10;3.20;;;;;20.80;98706.00;;;;2076764;28;20233;-74
2022/02/21 03:44:41;;;;;;;4.80;3.37;;;;;20.80;98702.00;;;;2076208;28;20213;-74
2022/02/21 03:45:41;;;;;;;5.57;3.42;;;;;20.80;98710.00;;;;2074933;28;20222;-74
2022/02/21 03:46:43;;;;;;;6.20;3.33;;;;;20.80;98707.00;;;;2077072;28;20642;-74
2022/02/21 03:47:43;;;;;;;5.07;3.22;;;;;20.80;98724.00;;;;2075754;28;20621;-74
2022/02/21 03:48:43;;;;;;;5.37;3.63;;;;;20.80;98706.00;;;;2075750;28;20237;-74
2022/02/21 03:49:44;;;;;;;4.83;3.00;;;;;20.80;98718.00;;;;2075874;28;21084;-74
2022/02/21 03:50:45;;;;;;;4.57;2.80;;;;;20.80;98732.00;;;;2075776;28;20843;-72
2022/02/21 03:51:45;;;;;;;5.33;3.10;;;;;20.80;98712.00;;;;2076651;28;20875;-73
2022/02/21 03:52:45;;;;;;;4.40;2.80;;;;;20.80;98717.00;;;;2077048;28;20589;-73
2022/02/21 03:53:46;;;;;;;4.77;3.30;;;;;20.80;98727.00;;;;2077072;28;20585;-72
2022/02/21 03:54:46;;;;;;;4.83;3.10;;;;;20.80;98723.00;;;;2076997;28;20259;-73
2022/02/21 03:55:46;;;;;;;5.47;3.00;;;;;20.80;98718.00;;;;2076808;28;20214;-73
2022/02/21 03:56:47;;;;;;;3.97;2.57;;;;;20.80;98729.00;;;;2075199;28;20229;-73
2022/02/21 03:57:47;;;;;;;5.43;3.10;;;;;20.80;98728.00;;;;2076610;28;20656;-74
2022/02/21 03:58:47;;;;;;;5.10;3.20;;;;;20.70;98752.00;;;;2076314;28;20708;-75
2022/02/21 03:59:49;;;;;;;3.50;2.60;;;;;20.70;98736.00;;;;2075921;28;20213;-73
2022/02/21 04:00:49;;;;;;;4.50;2.85;;;;;20.70;98737.00;;;;2074040;28;20220;-73
2022/02/21 04:01:50;;;;;;;4.23;2.80;;;;;20.70;98747.00;;;;2076161;28;20213;-73
2022/02/21 04:02:50;;;;;;;4.50;2.63;;;;;20.70;98748.00;;;;2075072;28;20252;-75
2022/02/21 04:03:50;;;;;;;4.77;3.20;;;;;20.70;98742.00;;;;2076801;28;20306;-74
2022/02/21 04:04:51;;;;;;;4.07;3.10;;;;;20.70;98747.00;;;;2076169;28;20239;-72
2022/02/21 04:05:51;;;;;;;4.90;2.77;;;;;20.70;98737.00;;;;2076091;28;20209;-74
2022/02/21 04:06:51;;;;;;;5.00;2.83;;;;;20.70;98744.00;;;;2075883;28;20247;-74
2022/02/21 04:07:52;;;;;;;3.33;2.50;;;;;20.70;98744.00;;;;2076037;28;20210;-74
2022/02/21 04:08:52;;;;;;;5.73;2.70;;;;;20.70;98745.00;;;;2075530;28;20595;-74
2022/02/21 04:09:52;;;;;;;5.40;2.80;;;;;20.70;98755.00;;;;2076265;28;20211;-74
2022/02/21 04:10:53;;;;;;;4.57;2.73;;;;;20.70;98744.00;;;;2076249;28;20352;-74
2022/02/21 04:11:53;;;;;;;5.03;2.80;;;;;20.70;98747.00;;;;2076877;28;20214;-74
2022/02/21 04:12:54;;;;;;;4.80;2.30;;;;;20.70;98736.00;;;;2075616;28;20279;-74
2022/02/21 04:13:54;;;;;;;6.70;2.90;;;;;20.70;98752.00;;;;2076872;28;20210;-75
2022/02/21 04:14:54;;;;;;;3.53;2.30;;;;;20.70;98756.00;;;;2076927;28;20224;-74
2022/02/21 04:15:55;;;;;;;3.87;2.60;;;;;20.70;98756.00;;;;2076755;28;20210;-74
2022/02/21 04:16:55;;;;;;;5.63;2.80;;;;;20.70;98748.00;;;;2076127;28;20646;-75
2022/02/21 04:17:56;;;;;;;4.10;2.70;;;;;20.70;98758.00;;;;2075409;28;20460;-74
2022/02/21 04:18:56;;;;;;;4.83;2.50;;;;;20.70;98751.00;;;;2075927;28;20696;-75
2022/02/21 04:19:56;;;;;;;2.87;2.10;;;;;20.70;98750.00;;;;2075990;28;20217;-74
2022/02/21 04:20:57;;;;;;;3.30;2.30;;;;;20.70;98755.00;;;;2075522;28;20230;-74
2022/02/21 04:21:59;;;;;;;3.90;2.47;;;;;20.70;98705.00;;;;2076603;28;20205;-74
2022/02/21 04:22:59;;;;;;;4.30;2.55;;;;;20.70;98742.00;;;;2076867;28;20257;-71
2022/02/21 04:23:59;;;;;;;4.50;2.93;;;;;20.70;98760.00;;;;2076807;28;20245;-73
2022/02/21 04:25:00;;;;;;;4.63;2.83;;;;;20.70;98755.00;;;;2076297;28;20660;-74
2022/02/21 04:26:00;;;;;;;5.87;2.40;;;;;20.70;98760.00;;;;2075690;28;20272;-73
2022/02/21 04:27:00;;;;;;;4.90;2.53;;;;;20.70;98755.00;;;;2075708;28;20300;-72
2022/02/21 04:28:01;;;;;;;4.33;2.40;;;;;20.70;98762.00;;;;2075351;28;20210;-72
2022/02/21 04:29:01;;;;;;;3.47;1.80;;;;;20.80;98767.00;;;;2075236;28;20329;-68
2022/02/21 04:30:02;;;;;;;4.13;2.17;;;;;20.80;98745.00;;;;2075659;28;20604;-69
2022/02/21 04:31:02;;;;;;;5.07;2.47;;;;;20.80;98758.00;;;;2075330;28;20214;-70
2022/02/21 04:32:07;;;;;;;3.47;2.30;;;;;20.80;98756.00;;;;2075489;28;20248;-69
2022/02/21 04:33:07;;;;;;;6.70;2.30;;;;;20.80;98769.00;;;;2075554;28;20316;-70
2022/02/21 04:34:07;;;;;;;5.07;2.20;;;;;20.80;98762.00;;;;2075412;28;20213;-69
2022/02/21 04:35:08;;;;;;;5.33;2.37;;;;;20.80;98765.00;;;;2075634;28;20233;-68
2022/02/21 04:36:08;;;;;;;4.83;2.20;;;;;20.80;98775.00;;;;2075221;28;20216;-69
2022/02/21 04:37:09;;;;;;;5.70;2.40;;;;;20.80;98778.00;;;;2076244;28;20263;-69
2022/02/21 04:38:10;;;;;;;4.10;2.30;;;;;20.80;98784.00;;;;2075610;28;20205;-70
2022/02/21 04:39:10;;;;;;;4.53;2.25;;;;;20.80;98779.00;;;;2075409;28;20308;-68
2022/02/21 04:40:13;;;;;;;5.40;2.57;;;;;20.80;98787.00;;;;2075423;28;22286;-70
2022/02/21 04:41:13;;;;;;;3.45;2.03;;;;;20.80;98786.00;;;;2075225;28;20690;-68
2022/02/21 04:42:14;;;;;;;4.53;2.73;;;;;20.80;98819.00;;;;2070368;28;20245;-70
2022/02/21 04:43:14;;;;;;;3.13;1.90;;;;;20.80;98781.00;;;;2074656;28;20224;-69
2022/02/21 04:44:15;;;;;;;3.47;1.93;;;;;20.80;98787.00;;;;2075249;28;20665;-70
2022/02/21 04:45:15;;;;;;;4.37;2.30;;;;;20.80;98763.00;;;;2075370;28;20218;-68
2022/02/21 04:46:15;;;;;;;4.70;2.30;;;;;20.80;98809.00;;;;2075934;28;20457;-72
2022/02/21 04:47:16;;;;;;;6.50;2.50;;;;;20.70;98795.00;;;;2076077;28;20267;-72
2022/02/21 04:48:16;;;;;;;5.40;2.60;;;;;20.70;98797.00;;;;2070580;28;20226;-71
2022/02/21 04:49:16;;;;;;;4.03;2.23;;;;;20.70;98810.00;;;;2071286;28;20223;-72
2022/02/21 04:50:17;;;;;;;5.20;1.80;;;;;20.70;98811.00;;;;2075530;28;20320;-71
2022/02/21 04:51:17;;;;;;;3.07;1.57;;;;;20.70;98803.00;;;;2075455;28;20665;-71
2022/02/21 04:52:18;;;;;;;4.23;2.13;;;;;20.70;98792.00;;;;2075372;28;20271;-71
2022/02/21 04:53:18;;;;;;;3.57;2.10;;;;;20.70;98787.00;;;;2075811;28;20218;-72
2022/02/21 04:54:18;;;;;;;3.60;1.70;;;;;20.70;98801.00;;;;2075572;28;20229;-72
2022/02/21 04:55:19;;;;;;;3.60;1.97;;;;;20.70;98803.00;;;;2076648;28;20249;-71
2022/02/21 04:56:19;;;;;;;4.27;1.63;;;;;20.70;98803.00;;;;2076482;28;20226;-72
2022/02/21 04:57:19;;;;;;;5.03;2.27;;;;;20.70;98793.00;;;;2076666;28;20225;-71
2022/02/21 04:58:20;;;;;;;4.53;2.03;;;;;20.70;98796.00;;;;2075641;28;20238;-72
2022/02/21 04:59:20;;;;;;;5.03;2.00;;;;;20.70;98807.00;;;;2075820;28;20720;-74
2022/02/21 05:00:20;;;;;;;5.33;2.20;;;;;20.70;98814.00;;;;2075791;28;20214;-74
2022/02/21 05:01:21;;;;;;;4.07;2.00;;;;;20.70;98824.00;;;;2075606;28;20372;-74
2022/02/21 05:02:21;;;;;;;4.67;2.07;;;;;20.70;98810.00;;;;2075471;28;20245;-73